Bantry, North Dakota
Current Conditions -  °F | °C
As of 2:35 AM on Sunday 23 Nov 2014 (Local Time) from KRUG Reporting Station
Clear Clear  
Wind Chill: 23°   Ceiling: Unl
Heat Index: 32°   Visibility: 10mi
Dew Point: 30°   Wind: 13mph
Humidity: 93%   Direction: 240°WSW
Pressure: 29.3"   Gusts: NA
Location:  48.5°N, 100.61°W
Report Text: KRUG 230835Z AUTO 24011KT 10SM CLR 00/M01 A2930 RMK AO2
Loading
Personal Weather Stations






























Interactive Weather Map New forecast layout! Learn more

10-Day Weather Forecast

Advertisements
Track Severe Weather on mobile